sensor_id;sensor_type;location;lat;lon;timestamp;pressure;altitude;pressure_sealevel;temperature;humidity
48267;BME280;34088;52.232;5.196;2024-02-26T00:01:55;100093.94;;;5.74;100.00
48267;BME280;34088;52.232;5.196;2024-02-26T00:04:21;100094.97;;;5.68;100.00
48267;BME280;34088;52.232;5.196;2024-02-26T00:06:47;100087.19;;;5.70;100.00
48267;BME280;34088;52.232;5.196;2024-02-26T00:09:13;100090.66;;;5.69;100.00
48267;BME280;34088;52.232;5.196;2024-02-26T00:11:38;100091.53;;;5.68;100.00
48267;BME280;34088;52.232;5.196;2024-02-26T00:14:04;100090.66;;;5.69;100.00
48267;BME280;34088;52.232;5.196;2024-02-26T00:16:30;100095.03;;;5.65;100.00
48267;BME280;34088;52.232;5.196;2024-02-26T00:33:16;100105.06;;;5.41;100.00
48267;BME280;34088;52.232;5.196;2024-02-26T00:35:42;100099.31;;;5.33;100.00
48267;BME280;34088;52.232;5.196;2024-02-26T00:38:07;100111.97;;;5.39;100.00
48267;BME280;34088;52.232;5.196;2024-02-26T00:40:33;100113.75;;;5.37;100.00
48267;BME280;34088;52.232;5.196;2024-02-26T00:42:59;100102.75;;;5.32;100.00
48267;BME280;34088;52.232;5.196;2024-02-26T00:45:24;100110.47;;;5.32;100.00
48267;BME280;34088;52.232;5.196;2024-02-26T00:47:49;100108.69;;;5.34;100.00
48267;BME280;34088;52.232;5.196;2024-02-26T00:50:15;100101.81;;;5.36;100.00
48267;BME280;34088;52.232;5.196;2024-02-26T00:52:40;100112.06;;;5.36;100.00
48267;BME280;34088;52.232;5.196;2024-02-26T00:55:06;100113.78;;;5.35;100.00
48267;BME280;34088;52.232;5.196;2024-02-26T00:57:32;100096.78;;;5.31;100.00
48267;BME280;34088;52.232;5.196;2024-02-26T00:59:57;100103.56;;;5.34;100.00
48267;BME280;34088;52.232;5.196;2024-02-26T01:02:22;100098.56;;;5.28;100.00
48267;BME280;34088;52.232;5.196;2024-02-26T01:04:48;100105.34;;;5.30;100.00
48267;BME280;34088;52.232;5.196;2024-02-26T01:07:13;100097.81;;;5.24;100.00
48267;BME280;34088;52.232;5.196;2024-02-26T01:09:39;100110.50;;;5.30;100.00
48267;BME280;34088;52.232;5.196;2024-02-26T01:12:04;100110.59;;;5.27;100.00
48267;BME280;34088;52.232;5.196;2024-02-26T01:14:29;100120.88;;;5.26;100.00
48267;BME280;34088;52.232;5.196;2024-02-26T01:16:55;100108.16;;;5.21;100.00
48267;BME280;34088;52.232;5.196;2024-02-26T01:19:21;100116.53;;;5.28;100.00
48267;BME280;34088;52.232;5.196;2024-02-26T01:21:46;100116.69;;;5.22;100.00
48267;BME280;34088;52.232;5.196;2024-02-26T01:24:11;100107.25;;;5.24;100.00
48267;BME280;34088;52.232;5.196;2024-02-26T01:26:37;100122.69;;;5.21;100.00
48267;BME280;34088;52.232;5.196;2024-02-26T01:29:02;100119.22;;;5.23;100.00
48267;BME280;34088;52.232;5.196;2024-02-26T01:31:27;100126.06;;;5.23;100.00
48267;BME280;34088;52.232;5.196;2024-02-26T01:33:53;100124.31;;;5.25;100.00
48267;BME280;34088;52.232;5.196;2024-02-26T01:36:18;100115.88;;;5.20;100.00
48267;BME280;34088;52.232;5.196;2024-02-26T01:38:43;100105.03;;;5.09;100.00
48267;BME280;34088;52.232;5.196;2024-02-26T01:41:09;100114.38;;;5.11;100.00
48267;BME280;34088;52.232;5.196;2024-02-26T01:43:34;100120.28;;;5.15;100.00
48267;BME280;34088;52.232;5.196;2024-02-26T01:45:59;100116.00;;;5.15;100.00
48267;BME280;34088;52.232;5.196;2024-02-26T01:48:25;100112.69;;;5.12;100.00
48267;BME280;34088;52.232;5.196;2024-02-26T01:50:51;100116.16;;;5.09;100.00
48267;BME280;34088;52.232;5.196;2024-02-26T01:53:17;100116.22;;;5.06;100.00
48267;BME280;34088;52.232;5.196;2024-02-26T01:55:43;100104.25;;;5.07;100.00
48267;BME280;34088;52.232;5.196;2024-02-26T01:58:09;100109.38;;;5.07;100.00
48267;BME280;34088;52.232;5.196;2024-02-26T02:00:35;100107.00;;;4.98;100.00
48267;BME280;34088;52.232;5.196;2024-02-26T02:03:01;100116.22;;;5.06;100.00
48267;BME280;34088;52.232;5.196;2024-02-26T02:05:28;100118.81;;;5.05;100.00
48267;BME280;34088;52.232;5.196;2024-02-26T02:07:54;100122.25;;;5.04;100.00
48267;BME280;34088;52.232;5.196;2024-02-26T02:10:19;100122.28;;;5.02;100.00
48267;BME280;34088;52.232;5.196;2024-02-26T02:12:50;100120.59;;;5.03;100.00
48267;BME280;34088;52.232;5.196;2024-02-26T02:15:16;100126.72;;;4.97;100.00
48267;BME280;34088;52.232;5.196;2024-02-26T02:17:41;100130.09;;;4.98;100.00
48267;BME280;34088;52.232;5.196;2024-02-26T02:20:15;100130.03;;;5.01;100.00
48267;BME280;34088;52.232;5.196;2024-02-26T02:22:41;100129.34;;;4.94;100.00
48267;BME280;34088;52.232;5.196;2024-02-26T02:25:09;100133.66;;;4.92;100.00
48267;BME280;34088;52.232;5.196;2024-02-26T02:27:34;100139.56;;;4.96;100.00
48267;BME280;34088;52.232;5.196;2024-02-26T02:30:00;100133.53;;;4.97;100.00
48267;BME280;34088;52.232;5.196;2024-02-26T02:32:25;100124.31;;;4.90;100.00
48267;BME280;34088;52.232;5.196;2024-02-26T02:34:51;100138.69;;;4.97;100.00
48267;BME280;34088;52.232;5.196;2024-02-26T02:37:16;100141.22;;;4.98;100.00
48267;BME280;34088;52.232;5.196;2024-02-26T02:39:43;100139.47;;;4.99;100.00
48267;BME280;34088;52.232;5.196;2024-02-26T02:42:08;100145.44;;;5.01;100.00
48267;BME280;34088;52.232;5.196;2024-02-26T02:44:34;100148.94;;;4.97;100.00
48267;BME280;34088;52.232;5.196;2024-02-26T02:46:59;100144.56;;;5.02;100.00
48267;BME280;34088;52.232;5.196;2024-02-26T02:49:25;100147.03;;;5.05;100.00
48267;BME280;34088;52.232;5.196;2024-02-26T02:51:50;100142.81;;;5.02;100.00
48267;BME280;34088;52.232;5.196;2024-02-26T02:54:15;100146.22;;;5.03;100.00
48267;BME280;34088;52.232;5.196;2024-02-26T02:56:40;100142.00;;;5.00;100.00
48267;BME280;34088;52.232;5.196;2024-02-26T02:59:06;100142.03;;;4.99;100.00
48267;BME280;34088;52.232;5.196;2024-02-26T03:01:31;100150.56;;;5.01;100.00
48267;BME280;34088;52.232;5.196;2024-02-26T03:03:56;100150.56;;;5.01;100.00
48267;BME280;34088;52.232;5.196;2024-02-26T03:06:22;100153.03;;;5.04;100.00
48267;BME280;34088;52.232;5.196;2024-02-26T03:08:48;100166.72;;;5.04;100.00
48267;BME280;34088;52.232;5.196;2024-02-26T03:11:14;100166.72;;;5.04;100.00
48267;BME280;34088;52.232;5.196;2024-02-26T03:13:40;100182.06;;;5.06;100.00
48267;BME280;34088;52.232;5.196;2024-02-26T03:16:06;100172.69;;;5.05;100.00
48267;BME280;34088;52.232;5.196;2024-02-26T03:18:31;100181.13;;;5.08;100.00
48267;BME280;34088;52.232;5.196;2024-02-26T03:20:57;100187.13;;;5.09;100.00
48267;BME280;34088;52.232;5.196;2024-02-26T03:23:22;100204.09;;;5.14;100.00
48267;BME280;34088;52.232;5.196;2024-02-26T03:25:47;100192.25;;;5.09;100.00
48267;BME280;34088;52.232;5.196;2024-02-26T03:28:13;100191.34;;;5.11;100.00
48267;BME280;34088;52.232;5.196;2024-02-26T03:30:38;100198.16;;;5.12;100.00
48267;BME280;34088;52.232;5.196;2024-02-26T03:33:04;100198.97;;;5.14;100.00
48267;BME280;34088;52.232;5.196;2024-02-26T03:35:29;100196.38;;;5.14;100.00
48267;BME280;34088;52.232;5.196;2024-02-26T03:37:55;100194.69;;;5.15;100.00
48267;BME280;34088;52.232;5.196;2024-02-26T03:40:20;100170.22;;;5.00;100.00
48267;BME280;34088;52.232;5.196;2024-02-26T03:42:46;100193.97;;;5.08;100.00
48267;BME280;34088;52.232;5.196;2024-02-26T03:45:11;100189.84;;;5.03;100.00
48267;BME280;34088;52.232;5.196;2024-02-26T03:47:39;100190.69;;;5.03;100.00
48267;BME280;34088;52.232;5.196;2024-02-26T03:50:06;100190.59;;;5.06;100.00
48267;BME280;34088;52.232;5.196;2024-02-26T03:52:31;100205.03;;;5.12;100.00
48267;BME280;34088;52.232;5.196;2024-02-26T03:54:57;100210.94;;;5.15;100.00
48267;BME280;34088;52.232;5.196;2024-02-26T03:57:22;100214.47;;;5.10;100.00
48267;BME280;34088;52.232;5.196;2024-02-26T03:59:47;100208.41;;;5.14;100.00
48267;BME280;34088;52.232;5.196;2024-02-26T04:02:13;100221.22;;;5.14;100.00
48267;BME280;34088;52.232;5.196;2024-02-26T04:04:38;100222.91;;;5.15;100.00
48267;BME280;34088;52.232;5.196;2024-02-26T04:07:03;100225.41;;;5.18;100.00
48267;BME280;34088;52.232;5.196;2024-02-26T04:09:31;100220.44;;;5.12;100.00
48267;BME280;34088;52.232;5.196;2024-02-26T04:11:56;100220.44;;;5.12;100.00
48267;BME280;34088;52.232;5.196;2024-02-26T04:14:22;100234.84;;;5.16;100.00
48267;BME280;34088;52.232;5.196;2024-02-26T04:16:47;100240.75;;;5.19;100.00
48267;BME280;34088;52.232;5.196;2024-02-26T04:19:16;100220.47;;;5.09;100.00
48267;BME280;34088;52.232;5.196;2024-02-26T04:21:43;100248.56;;;5.15;100.00
48267;BME280;34088;52.232;5.196;2024-02-26T04:24:08;100241.66;;;5.17;100.00
48267;BME280;34088;52.232;5.196;2024-02-26T04:26:34;100240.72;;;5.21;100.00
48267;BME280;34088;52.232;5.196;2024-02-26T04:28:59;100240.88;;;5.15;100.00
48267;BME280;34088;52.232;5.196;2024-02-26T04:31:25;100253.63;;;5.18;100.00
48267;BME280;34088;52.232;5.196;2024-02-26T04:33:51;100258.72;;;5.19;100.00
48267;BME280;34088;52.232;5.196;2024-02-26T04:36:16;100262.19;;;5.17;100.00
48267;BME280;34088;52.232;5.196;2024-02-26T04:38:43;100252.88;;;5.13;100.00
48267;BME280;34088;52.232;5.196;2024-02-26T04:41:08;100258.94;;;5.10;100.00
48267;BME280;34088;52.232;5.196;2024-02-26T04:43:33;100257.25;;;5.09;100.00
48267;BME280;34088;52.232;5.196;2024-02-26T04:45:59;100256.44;;;5.06;100.00
48267;BME280;34088;52.232;5.196;2024-02-26T04:48:24;100255.75;;;4.99;100.00
48267;BME280;34088;52.232;5.196;2024-02-26T04:50:50;100268.56;;;5.01;100.00
48267;BME280;34088;52.232;5.196;2024-02-26T04:53:15;100261.78;;;4.97;100.00
48267;BME280;34088;52.232;5.196;2024-02-26T04:55:40;100257.59;;;4.93;100.00
48267;BME280;34088;52.232;5.196;2024-02-26T04:58:05;100265.28;;;4.93;100.00
48267;BME280;34088;52.232;5.196;2024-02-26T05:00:31;100267.03;;;4.91;100.00
48267;BME280;34088;52.232;5.196;2024-02-26T05:02:56;100251.66;;;4.91;100.00
48267;BME280;34088;52.232;5.196;2024-02-26T05:05:21;100267.88;;;4.91;100.00
48267;BME280;34088;52.232;5.196;2024-02-26T05:07:47;100254.34;;;4.85;100.00
48267;BME280;34088;52.232;5.196;2024-02-26T05:10:12;100272.28;;;4.85;100.00
48267;BME280;34088;52.232;5.196;2024-02-26T05:12:38;100273.31;;;4.78;100.00
48267;BME280;34088;52.232;5.196;2024-02-26T05:15:04;100243.38;;;4.78;100.00
48267;BME280;34088;52.232;5.196;2024-02-26T05:17:29;100272.28;;;4.85;100.00
48267;BME280;34088;52.232;5.196;2024-02-26T05:19:54;100268.94;;;4.83;100.00
48267;BME280;34088;52.232;5.196;2024-02-26T05:22:20;100275.75;;;4.84;100.00
48267;BME280;34088;52.232;5.196;2024-02-26T05:24:45;100276.53;;;4.87;100.00
48267;BME280;34088;52.232;5.196;2024-02-26T05:27:10;100285.13;;;4.85;100.00
48267;BME280;34088;52.232;5.196;2024-02-26T05:29:37;100287.69;;;4.85;100.00
48267;BME280;34088;52.232;5.196;2024-02-26T05:32:03;100286.03;;;4.82;100.00
48267;BME280;34088;52.232;5.196;2024-02-26T05:34:28;100291.91;;;4.87;100.00
48267;BME280;34088;52.232;5.196;2024-02-26T05:36:55;100294.44;;;4.89;100.00
48267;BME280;34088;52.232;5.196;2024-02-26T05:39:20;100295.28;;;4.88;100.00
48267;BME280;34088;52.232;5.196;2024-02-26T05:41:46;100303.00;;;4.88;100.00
48267;BME280;34088;52.232;5.196;2024-02-26T05:44:11;100297.81;;;4.91;100.00
48267;BME280;34088;52.232;5.196;2024-02-26T05:46:36;100305.53;;;4.89;100.00
48267;BME280;34088;52.232;5.196;2024-02-26T05:49:02;100303.84;;;4.88;100.00
48267;BME280;34088;52.232;5.196;2024-02-26T05:51:28;100299.69;;;4.83;100.00
48267;BME280;34088;52.232;5.196;2024-02-26T05:53:53;100302.16;;;4.87;100.00
48267;BME280;34088;52.232;5.196;2024-02-26T05:56:21;100299.75;;;4.80;100.00
48267;BME280;34088;52.232;5.196;2024-02-26T05:58:46;100314.88;;;4.93;100.00
48267;BME280;34088;52.232;5.196;2024-02-26T06:01:12;100311.44;;;4.93;100.00
48267;BME280;34088;52.232;5.196;2024-02-26T06:03:37;100320.03;;;4.92;100.00
48267;BME280;34088;52.232;5.196;2024-02-26T06:06:02;100314.91;;;4.90;100.00
48267;BME280;34088;52.232;5.196;2024-02-26T06:08:28;100321.72;;;4.91;100.00
48267;BME280;34088;52.232;5.196;2024-02-26T06:10:53;100318.34;;;4.91;100.00
48267;BME280;34088;52.232;5.196;2024-02-26T06:13:19;100337.94;;;4.93;100.00
48267;BME280;34088;52.232;5.196;2024-02-26T06:15:44;100318.47;;;4.85;100.00
48267;BME280;34088;52.232;5.196;2024-02-26T06:18:09;100330.41;;;4.84;100.00
48267;BME280;34088;52.232;5.196;2024-02-26T06:20:35;100361.81;;;4.97;100.00
48267;BME280;34088;52.232;5.196;2024-02-26T06:23:00;100355.81;;;4.98;100.00
48267;BME280;34088;52.232;5.196;2024-02-26T06:25:25;100354.03;;;5.00;100.00
48267;BME280;34088;52.232;5.196;2024-02-26T06:27:51;100349.84;;;4.97;100.00
48267;BME280;34088;52.232;5.196;2024-02-26T06:30:16;100347.31;;;4.94;100.00
48267;BME280;34088;52.232;5.196;2024-02-26T06:32:41;100350.03;;;4.87;100.00
48267;BME280;34088;52.232;5.196;2024-02-26T06:35:07;100372.09;;;4.95;100.00
48267;BME280;34088;52.232;5.196;2024-02-26T06:37:34;100372.22;;;4.89;100.00
48267;BME280;34088;52.232;5.196;2024-02-26T06:40:00;100378.97;;;4.93;100.00
48267;BME280;34088;52.232;5.196;2024-02-26T06:42:26;100366.19;;;4.92;100.00
48267;BME280;34088;52.232;5.196;2024-02-26T06:44:51;100367.06;;;4.91;100.00
48267;BME280;34088;52.232;5.196;2024-02-26T06:47:16;100355.16;;;4.87;100.00
48267;BME280;34088;52.232;5.196;2024-02-26T06:49:42;100371.50;;;4.83;100.00
48267;BME280;34088;52.232;5.196;2024-02-26T06:52:08;100374.00;;;4.86;100.00
48267;BME280;34088;52.232;5.196;2024-02-26T06:54:34;100386.78;;;4.87;100.00
48267;BME280;34088;52.232;5.196;2024-02-26T06:56:59;100373.31;;;4.78;100.00
48267;BME280;34088;52.232;5.196;2024-02-26T06:59:24;100382.66;;;4.80;100.00
48267;BME280;34088;52.232;5.196;2024-02-26T07:01:50;100396.31;;;4.79;100.00
48267;BME280;34088;52.232;5.196;2024-02-26T07:04:15;100396.38;;;4.78;100.00
48267;BME280;34088;52.232;5.196;2024-02-26T07:06:40;100392.22;;;4.71;100.00
48267;BME280;34088;52.232;5.196;2024-02-26T07:09:06;100409.25;;;4.75;100.00
48267;BME280;34088;52.232;5.196;2024-02-26T07:11:32;100417.78;;;4.75;100.00
48267;BME280;34088;52.232;5.196;2024-02-26T07:13:57;100414.47;;;4.69;100.00
48267;BME280;34088;52.232;5.196;2024-02-26T07:16:22;100421.25;;;4.73;100.00
48267;BME280;34088;52.232;5.196;2024-02-26T07:18:47;100427.22;;;4.73;100.00
48267;BME280;34088;52.232;5.196;2024-02-26T07:21:13;100421.19;;;4.76;100.00
48267;BME280;34088;52.232;5.196;2024-02-26T07:23:38;100422.22;;;4.66;100.00
48267;BME280;34088;52.232;5.196;2024-02-26T07:26:04;100429.97;;;4.61;100.00
48267;BME280;34088;52.232;5.196;2024-02-26T07:28:29;100433.28;;;4.68;100.00
48267;BME280;34088;52.232;5.196;2024-02-26T07:30:55;100435.09;;;4.63;100.00
48267;BME280;34088;52.232;5.196;2024-02-26T07:33:20;100442.81;;;4.61;100.00
48267;BME280;34088;52.232;5.196;2024-02-26T07:35:46;100447.88;;;4.64;100.00
48267;BME280;34088;52.232;5.196;2024-02-26T07:38:11;100450.53;;;4.60;100.00
48267;BME280;34088;52.232;5.196;2024-02-26T07:40:38;100452.16;;;4.64;100.00
48267;BME280;34088;52.232;5.196;2024-02-26T07:43:04;100444.56;;;4.59;100.00
48267;BME280;34088;52.232;5.196;2024-02-26T07:45:29;100439.53;;;4.53;100.00
48267;BME280;34088;52.232;5.196;2024-02-26T07:47:54;100442.03;;;4.56;100.00
48267;BME280;34088;52.232;5.196;2024-02-26T07:50:20;100461.53;;;4.65;100.00
48267;BME280;34088;52.232;5.196;2024-02-26T07:52:45;100460.72;;;4.63;100.00
48267;BME280;34088;52.232;5.196;2024-02-26T07:55:10;100455.56;;;4.66;100.00
48267;BME280;34088;52.232;5.196;2024-02-26T07:57:36;100470.09;;;4.64;100.00
48267;BME280;34088;52.232;5.196;2024-02-26T08:00:04;100469.22;;;4.65;100.00
48267;BME280;34088;52.232;5.196;2024-02-26T08:02:34;100469.28;;;4.62;100.00
48267;BME280;34088;52.232;5.196;2024-02-26T08:04:59;100480.31;;;4.67;100.00
48267;BME280;34088;52.232;5.196;2024-02-26T08:07:24;100478.66;;;4.64;100.00
48267;BME280;34088;52.232;5.196;2024-02-26T08:09:50;100488.81;;;4.69;100.00
48267;BME280;34088;52.232;5.196;2024-02-26T08:12:15;100493.97;;;4.67;100.00
48267;BME280;34088;52.232;5.196;2024-02-26T08:14:41;100495.63;;;4.71;100.00
48267;BME280;34088;52.232;5.196;2024-02-26T08:17:08;100495.69;;;4.68;100.00
48267;BME280;34088;52.232;5.196;2024-02-26T08:19:33;100490.47;;;4.73;100.00
48267;BME280;34088;52.232;5.196;2024-02-26T08:22:00;100504.19;;;4.70;100.00
48267;BME280;34088;52.232;5.196;2024-02-26T08:24:26;100493.13;;;4.67;100.00
48267;BME280;34088;52.232;5.196;2024-02-26T08:26:51;100506.75;;;4.70;100.00
48267;BME280;34088;52.232;5.196;2024-02-26T08:29:16;100500.72;;;4.74;100.00
48267;BME280;34088;52.232;5.196;2024-02-26T08:31:42;100513.47;;;4.76;100.00
48267;BME280;34088;52.232;5.196;2024-02-26T08:34:07;100499.03;;;4.72;100.00
48267;BME280;34088;52.232;5.196;2024-02-26T08:36:34;100494.75;;;4.71;100.00
48267;BME280;34088;52.232;5.196;2024-02-26T08:38:59;100501.66;;;4.67;100.00
48267;BME280;34088;52.232;5.196;2024-02-26T08:41:25;100519.56;;;4.72;100.00
48267;BME280;34088;52.232;5.196;2024-02-26T08:43:51;100517.81;;;4.74;100.00
48267;BME280;34088;52.232;5.196;2024-02-26T08:46:16;100518.63;;;4.76;100.00
48267;BME280;34088;52.232;5.196;2024-02-26T08:48:42;100528.84;;;4.77;100.00
48267;BME280;34088;52.232;5.196;2024-02-26T08:51:07;100529.72;;;4.78;100.00
48267;BME280;34088;52.232;5.196;2024-02-26T08:53:34;100544.13;;;4.83;100.00
48267;BME280;34088;52.232;5.196;2024-02-26T08:55:59;100536.50;;;4.80;100.00
48267;BME280;34088;52.232;5.196;2024-02-26T08:58:24;100536.44;;;4.83;100.00
48267;BME280;34088;52.232;5.196;2024-02-26T09:00:49;100534.75;;;4.82;100.00
48267;BME280;34088;52.232;5.196;2024-02-26T09:03:15;100544.09;;;4.86;100.00
48267;BME280;34088;52.232;5.196;2024-02-26T09:05:40;100549.97;;;4.91;100.00
48267;BME280;34088;52.232;5.196;2024-02-26T09:08:06;100552.50;;;4.96;100.00
48267;BME280;34088;52.232;5.196;2024-02-26T09:10:31;100554.28;;;4.91;100.00
48267;BME280;34088;52.232;5.196;2024-02-26T09:12:58;100561.00;;;4.98;100.00
48267;BME280;34088;52.232;5.196;2024-02-26T09:15:23;100560.19;;;4.96;100.00
48267;BME280;34088;52.232;5.196;2024-02-26T09:17:49;100563.56;;;4.96;100.00
48267;BME280;34088;52.232;5.196;2024-02-26T09:20:15;100579.81;;;4.97;100.00
48267;BME280;34088;52.232;5.196;2024-02-26T09:22:41;100578.19;;;4.91;100.00
48267;BME280;34088;52.232;5.196;2024-02-26T09:25:07;100585.88;;;4.93;100.00
48267;BME280;34088;52.232;5.196;2024-02-26T09:27:33;100559.50;;;4.85;100.00
48267;BME280;34088;52.232;5.196;2024-02-26T09:29:58;100582.41;;;4.95;100.00
48267;BME280;34088;52.232;5.196;2024-02-26T09:32:23;100584.09;;;4.98;100.00
48267;BME280;34088;52.232;5.196;2024-02-26T09:34:50;100590.19;;;4.91;100.00
48267;BME280;34088;52.232;5.196;2024-02-26T09:37:15;100595.22;;;4.97;100.00
48267;BME280;34088;52.232;5.196;2024-02-26T09:39:40;100576.59;;;4.86;100.00
48267;BME280;34088;52.232;5.196;2024-02-26T09:42:06;100599.44;;;5.01;100.00
48267;BME280;34088;52.232;5.196;2024-02-26T09:44:36;100602.84;;;5.00;100.00
48267;BME280;34088;52.232;5.196;2024-02-26T09:47:05;100605.47;;;4.97;100.00
48267;BME280;34088;52.232;5.196;2024-02-26T09:49:32;100610.53;;;5.00;100.00
48267;BME280;34088;52.232;5.196;2024-02-26T09:51:57;100608.75;;;5.05;100.00
48267;BME280;34088;52.232;5.196;2024-02-26T09:54:25;100619.03;;;5.05;100.00
48267;BME280;34088;52.232;5.196;2024-02-26T09:56:53;100616.44;;;5.05;100.00
48267;BME280;34088;52.232;5.196;2024-02-26T09:59:21;100618.91;;;5.11;100.00
48267;BME280;34088;52.232;5.196;2024-02-26T10:01:47;100614.66;;;5.11;100.00
48267;BME280;34088;52.232;5.196;2024-02-26T10:04:14;100631.63;;;5.18;100.00
48267;BME280;34088;52.232;5.196;2024-02-26T10:06:39;100634.28;;;5.12;100.00
48267;BME280;34088;52.232;5.196;2024-02-26T10:09:05;100629.06;;;5.18;100.00
48267;BME280;34088;52.232;5.196;2024-02-26T10:11:35;100639.44;;;5.12;100.00
48267;BME280;34088;52.232;5.196;2024-02-26T10:14:00;100647.00;;;5.20;100.00
48267;BME280;34088;52.232;5.196;2024-02-26T10:16:26;100647.91;;;5.16;100.00
48267;BME280;34088;52.232;5.196;2024-02-26T10:18:53;100640.97;;;5.24;100.00
48267;BME280;34088;52.232;5.196;2024-02-26T10:21:22;100654.72;;;5.20;100.00
48267;BME280;34088;52.232;5.196;2024-02-26T10:23:48;100669.16;;;5.25;100.00
48267;BME280;34088;52.232;5.196;2024-02-26T10:26:14;100655.53;;;5.22;100.00
48267;BME280;34088;52.232;5.196;2024-02-26T10:28:41;100654.63;;;5.24;100.00
48267;BME280;34088;52.232;5.196;2024-02-26T10:31:08;100655.53;;;5.20;100.00
48267;BME280;34088;52.232;5.196;2024-02-26T10:33:35;100675.22;;;5.21;100.00
48267;BME280;34088;52.232;5.196;2024-02-26T10:36:07;100681.94;;;5.28;100.00
48267;BME280;34088;52.232;5.196;2024-02-26T10:38:33;100665.78;;;5.23;100.00
48267;BME280;34088;52.232;5.196;2024-02-26T10:40:59;100682.06;;;5.21;100.00
48267;BME280;34088;52.232;5.196;2024-02-26T10:43:27;100666.75;;;5.16;100.00
48267;BME280;34088;52.232;5.196;2024-02-26T10:45:55;100688.84;;;5.25;100.00
48267;BME280;34088;52.232;5.196;2024-02-26T10:48:21;100682.88;;;5.23;100.00
48267;BME280;34088;52.232;5.196;2024-02-26T10:50:47;100687.00;;;5.31;100.00
48267;BME280;34088;52.232;5.196;2024-02-26T10:53:22;100701.59;;;5.31;100.00
48267;BME280;34088;52.232;5.196;2024-02-26T10:55:51;100699.03;;;5.29;100.00
48267;BME280;34088;52.232;5.196;2024-02-26T10:58:18;100711.94;;;5.25;100.00
48267;BME280;34088;52.232;5.196;2024-02-26T11:00:45;100716.13;;;5.29;100.00
48267;BME280;34088;52.232;5.196;2024-02-26T11:03:12;100709.31;;;5.29;100.00
48267;BME280;34088;52.232;5.196;2024-02-26T11:05:39;100711.84;;;5.31;100.00
48267;BME280;34088;52.232;5.196;2024-02-26T11:08:06;100714.31;;;5.38;100.00
48267;BME280;34088;52.232;5.196;2024-02-26T11:10:32;100722.06;;;5.34;100.00
48267;BME280;34088;52.232;5.196;2024-02-26T11:12:59;100722.84;;;5.37;100.00
48267;BME280;34088;52.232;5.196;2024-02-26T11:15:27;100736.56;;;5.35;100.00
48267;BME280;34088;52.232;5.196;2024-02-26T11:17:55;100755.31;;;5.40;100.00
48267;BME280;34088;52.232;5.196;2024-02-26T11:20:21;100737.31;;;5.44;100.00
48267;BME280;34088;52.232;5.196;2024-02-26T11:22:48;100744.19;;;5.41;100.00
48267;BME280;34088;52.232;5.196;2024-02-26T11:25:13;100753.53;;;5.45;100.00
48267;BME280;34088;52.232;5.196;2024-02-26T11:27:57;100745.72;;;5.54;100.00
48267;BME280;34088;52.232;5.196;2024-02-26T11:30:25;100747.41;;;5.53;100.00
48267;BME280;34088;52.232;5.196;2024-02-26T11:32:52;100754.13;;;5.62;100.00
48267;BME280;34088;52.232;5.196;2024-02-26T11:35:18;100753.16;;;5.69;100.00
48267;BME280;34088;52.232;5.196;2024-02-26T11:37:54;100758.50;;;5.57;100.00
48267;BME280;34088;52.232;5.196;2024-02-26T11:40:22;100758.47;;;5.60;100.00
48267;BME280;34088;52.232;5.196;2024-02-26T11:42:48;100756.81;;;5.54;100.00
48267;BME280;34088;52.232;5.196;2024-02-26T11:48:12;100762.63;;;5.67;100.00
48267;BME280;34088;52.232;5.196;2024-02-26T11:50:43;100764.28;;;5.71;100.00
48267;BME280;34088;52.232;5.196;2024-02-26T11:53:23;100756.69;;;5.62;100.00
48267;BME280;34088;52.232;5.196;2024-02-26T11:58:42;100780.34;;;5.83;100.00
48267;BME280;34088;52.232;5.196;2024-02-26T12:04:26;100775.88;;;5.94;100.00
48267;BME280;34088;52.232;5.196;2024-02-26T12:07:00;100774.19;;;5.95;100.00
48267;BME280;34088;52.232;5.196;2024-02-26T12:09:39;100783.78;;;5.84;100.00
48267;BME280;34088;52.232;5.196;2024-02-26T12:12:09;100787.13;;;5.87;100.00
48267;BME280;34088;52.232;5.196;2024-02-26T12:14:39;100784.47;;;5.92;99.90
48267;BME280;34088;52.232;5.196;2024-02-26T12:17:05;100787.94;;;5.89;100.00
48267;BME280;34088;52.232;5.196;2024-02-26T12:19:34;100792.97;;;5.97;99.50
48267;BME280;34088;52.232;5.196;2024-02-26T12:22:00;100786.06;;;5.99;99.69
48267;BME280;34088;52.232;5.196;2024-02-26T12:24:25;100799.66;;;6.08;100.00
48267;BME280;34088;52.232;5.196;2024-02-26T12:26:50;100792.84;;;6.04;99.08
48267;BME280;34088;52.232;5.196;2024-02-26T12:29:16;100803.03;;;6.10;99.07
48267;BME280;34088;52.232;5.196;2024-02-26T12:31:42;100792.63;;;6.16;99.10
48267;BME280;34088;52.232;5.196;2024-02-26T12:34:08;100813.41;;;6.04;97.79
48267;BME280;34088;52.232;5.196;2024-02-26T12:36:35;100805.59;;;6.09;98.32
48267;BME280;34088;52.232;5.196;2024-02-26T12:39:02;100802.22;;;6.07;98.29
48267;BME280;34088;52.232;5.196;2024-02-26T12:41:27;100791.25;;;5.97;98.17
48267;BME280;34088;52.232;5.196;2024-02-26T12:43:55;100813.22;;;6.15;98.00
48267;BME280;34088;52.232;5.196;2024-02-26T12:46:21;100819.13;;;6.20;97.81
48267;BME280;34088;52.232;5.196;2024-02-26T12:48:46;100819.16;;;6.18;97.78
48267;BME280;34088;52.232;5.196;2024-02-26T12:51:12;100824.16;;;6.26;97.57
48267;BME280;34088;52.232;5.196;2024-02-26T12:53:39;100838.81;;;6.21;97.60
48267;BME280;34088;52.232;5.196;2024-02-26T12:56:07;100837.09;;;6.21;97.14
48267;BME280;34088;52.232;5.196;2024-02-26T12:58:33;100843.13;;;6.19;97.14
48267;BME280;34088;52.232;5.196;2024-02-26T13:00:59;100845.69;;;6.20;97.13
48267;BME280;34088;52.232;5.196;2024-02-26T13:03:25;100842.25;;;6.21;97.19
48267;BME280;34088;52.232;5.196;2024-02-26T13:05:50;100856.66;;;6.30;97.25
48267;BME280;34088;52.232;5.196;2024-02-26T13:08:20;100853.34;;;6.22;96.11